Time;durP1;ratioP1;P1;durP2;ratioP2;P2;SDS_P1;SDS_P2;PMS_P1;PMS_P2;Temp;Humidity;BMP_temperature;BMP_pressure;BME280_temperature;BME280_humidity;BME280_pressure;Samples;Min_cycle;Max_cycle;Signal;HPM_P1;HPM_P2
2023/01/13 00:01:22;;;;;;;8.83;3.47;;;;;;;4.86;94.46;99800.06;5095582;28;20040;-63
2023/01/13 00:03:52;;;;;;;2.92;2.53;;;;;;;4.81;94.41;99794.03;5095980;28;20130;-63
2023/01/13 00:06:24;;;;;;;5.55;3.72;;;;;;;4.76;94.53;99793.06;5095519;28;20043;-63
2023/01/13 00:08:54;;;;;;;5.32;3.72;;;;;;;4.67;94.15;99795.38;5095903;28;20032;-63
2023/01/13 00:11:25;;;;;;;5.53;2.85;;;;;;;4.72;94.37;99804.81;5095406;28;20052;-63
2023/01/13 00:13:54;;;;;;;2.20;2.05;;;;;;;4.68;94.41;99802.13;5095407;28;20512;-64
2023/01/13 00:16:23;;;;;;;8.75;3.92;;;;;;;4.64;94.47;99797.84;5095367;28;20543;-63
2023/01/13 00:18:52;;;;;;;1.95;1.83;;;;;;;4.60;94.42;99798.59;5095374;28;20032;-63
2023/01/13 00:21:23;;;;;;;3.23;2.93;;;;;;;4.57;94.06;99796.84;5095512;28;20397;-63
2023/01/13 00:23:52;;;;;;;4.70;3.78;;;;;;;4.62;94.04;99802.00;5095359;28;20135;-63
2023/01/13 00:26:24;;;;;;;3.10;2.70;;;;;;;4.65;94.44;99807.97;5095490;28;20165;-63
2023/01/13 00:28:58;;;;;;;2.97;2.72;;;;;;;4.70;94.19;99805.59;5095171;28;20106;-64
2023/01/13 00:31:27;;;;;;;1.92;1.83;;;;;;;4.74;94.22;99814.94;5094141;28;20402;-63
2023/01/13 00:33:56;;;;;;;;;;;;;;;4.73;94.33;99803.09;5094233;28;20531;-63
2023/01/13 00:36:25;;;;;;;5.85;4.38;;;;;;;4.70;93.96;99800.53;5093722;28;19924;-63
2023/01/13 00:38:55;;;;;;;3.00;2.72;;;;;;;4.66;94.07;99798.72;5094915;28;20072;-64
2023/01/13 00:41:27;;;;;;;4.47;2.97;;;;;;;4.62;94.10;99799.47;5095166;28;20044;-63
2023/01/13 00:43:56;;;;;;;4.53;4.03;;;;;;;4.66;93.92;99796.19;5093646;28;20522;-64
2023/01/13 00:46:25;;;;;;;4.22;3.70;;;;;;;4.71;94.17;99789.56;5095546;28;20478;-64
2023/01/13 00:48:54;;;;;;;5.82;5.28;;;;;;;4.74;94.22;99794.72;5094781;28;20123;-64
2023/01/13 00:51:22;;;;;;;6.03;2.67;;;;;;;4.74;94.01;99787.13;5095021;28;20040;-64
2023/01/13 00:53:52;;;;;;;5.72;4.40;;;;;;;4.71;94.39;99792.09;5094867;28;20383;-64
2023/01/13 00:56:23;;;;;;;4.70;2.97;;;;;;;4.75;94.24;99792.22;5094268;28;20097;-64
2023/01/13 00:59:13;;;;;;;2.47;2.28;;;;;;;4.79;94.39;99792.28;5094678;28;20044;-64
2023/01/13 01:01:42;;;;;;;6.57;4.43;;;;;;;4.80;94.33;99794.84;5094798;28;20044;-64
2023/01/13 01:04:11;;;;;;;3.80;3.00;;;;;;;4.81;94.12;99793.19;5094714;28;20087;-64
2023/01/13 01:06:41;;;;;;;1.85;1.73;;;;;;;4.79;94.14;99800.75;5094700;28;20402;-64
2023/01/13 01:09:14;;;;;;;2.30;2.10;;;;;;;4.79;94.66;99795.69;5094381;28;20054;-64
2023/01/13 01:11:44;;;;;;;4.20;3.80;;;;;;;4.79;94.34;99800.75;5093721;28;20604;-64
2023/01/13 01:14:14;;;;;;;8.38;6.38;;;;;;;4.76;94.46;99790.56;5094526;28;20489;-64
2023/01/13 01:16:43;;;;;;;2.97;2.72;;;;;;;4.82;94.43;99793.25;5094293;28;20123;-63
2023/01/13 01:19:12;;;;;;;4.35;3.97;;;;;;;4.84;94.70;99794.13;5094170;28;20041;-63
2023/01/13 01:21:41;;;;;;;5.97;5.37;;;;;;;4.85;94.44;99784.88;5094146;28;20044;-64
2023/01/13 01:24:10;;;;;;;4.50;3.20;;;;;;;4.86;94.63;99779.84;5094338;28;20127;-64
2023/01/13 01:26:40;;;;;;;3.53;2.95;;;;;;;4.85;94.42;99775.59;5094402;28;20276;-63
2023/01/13 01:29:14;;;;;;;5.43;4.47;;;;;;;4.81;94.42;99760.31;5094622;28;20482;-64
2023/01/13 01:31:43;;;;;;;7.63;4.88;;;;;;;4.76;94.26;99755.16;5094341;28;20040;-64
2023/01/13 01:34:12;;;;;;;6.13;3.67;;;;;;;4.78;94.28;99758.56;5093899;28;20093;-64
2023/01/13 01:36:41;;;;;;;3.60;2.90;;;;;;;4.79;94.35;99752.72;5093860;28;20036;-63
2023/01/13 01:39:11;;;;;;;5.47;4.07;;;;;;;4.80;94.29;99756.94;5093818;28;20350;-63
2023/01/13 01:43:57;;;;;;;2.67;2.45;;;;;;;4.79;94.32;99760.28;5093873;28;20036;-63
2023/01/13 01:44:50;;;;;;;2.40;2.20;;;;;;;4.78;94.33;99758.56;5094151;28;20105;-63
2023/01/13 01:47:21;;;;;;;3.60;3.10;;;;;;;4.75;94.36;99758.53;5092654;28;20040;-64
2023/01/13 01:49:51;;;;;;;7.38;2.78;;;;;;;4.74;94.51;99742.50;5093774;28;20142;-63
2023/01/13 01:52:25;;;;;;;4.82;3.33;;;;;;;4.78;94.40;99748.47;5093999;28;20051;-63
2023/01/13 01:54:59;;;;;;;3.63;3.30;;;;;;;4.83;94.50;99751.94;5093966;28;20097;-64
2023/01/13 01:57:33;;;;;;;3.03;2.72;;;;;;;4.85;94.32;99760.41;5093500;28;20048;-64
2023/01/13 02:00:02;;;;;;;1.50;1.40;;;;;;;4.85;94.58;99745.25;5092480;28;20094;-63
2023/01/13 02:02:43;;;;;;;1.45;1.35;;;;;;;4.84;94.42;99746.09;5093642;28;20531;-63
2023/01/13 02:05:12;;;;;;;2.88;2.67;;;;;;;4.81;94.45;99740.09;5093590;28;20058;-63
2023/01/13 02:07:44;;;;;;;3.22;2.95;;;;;;;4.84;94.17;99746.09;5093826;28;20435;-64
2023/01/13 02:10:19;;;;;;;2.95;2.75;;;;;;;4.83;94.32;99736.78;5093922;28;20122;-63
2023/01/13 02:12:50;;;;;;;2.15;2.00;;;;;;;4.82;94.20;99734.22;5093983;28;20085;-64
2023/01/13 02:15:23;;;;;;;2.35;2.15;;;;;;;4.83;94.27;99726.66;5093393;28;20094;-64
2023/01/13 02:18:18;;;;;;;2.00;1.85;;;;;;;4.84;94.27;99718.28;5093527;28;20048;-64
2023/01/13 02:21:11;;;;;;;1.48;1.38;;;;;;;4.82;94.28;99714.00;5094609;28;20090;-64
2023/01/13 02:27:21;;;;;;;2.05;1.77;;;;;;;4.74;94.02;99701.19;5097618;28;20463;-64
2023/01/13 02:33:14;;;;;;;2.55;2.35;;;;;;;4.71;94.06;99694.38;5097537;28;20052;-64
2023/01/13 02:35:47;;;;;;;;;;;;;;;4.72;93.97;99701.16;5097684;28;20048;-64
2023/01/13 02:38:23;;;;;;;1.65;1.55;;;;;;;4.72;93.85;99697.78;5097599;28;19920;-64
2023/01/13 02:40:58;;;;;;;2.53;2.33;;;;;;;4.71;94.07;99701.09;5097629;28;20051;-64
2023/01/13 02:46:28;;;;;;;1.85;1.73;;;;;;;4.71;94.30;99691.00;5071664;28;20056;-63
2023/01/13 02:49:02;;;;;;;4.38;3.00;;;;;;;4.69;94.12;99692.66;5097135;28;20493;-63
2023/01/13 02:51:34;;;;;;;2.33;2.13;;;;;;;4.62;93.94;99680.69;5097039;28;20055;-64
2023/01/13 02:54:07;;;;;;;5.75;2.53;;;;;;;4.63;94.13;99687.47;5096059;28;20113;-64
2023/01/13 02:56:41;;;;;;;2.83;2.63;;;;;;;4.57;94.26;99677.19;5096645;28;20080;-64
2023/01/13 02:59:12;;;;;;;2.45;2.25;;;;;;;4.58;93.94;99678.91;5097206;28;20048;-63
2023/01/13 03:01:42;;;;;;;2.85;1.92;;;;;;;4.64;94.17;99684.09;5096841;28;20052;-64
2023/01/13 03:04:13;;;;;;;35.03;2.63;;;;;;;4.64;94.05;99684.09;5096850;28;20482;-64
2023/01/13 03:06:53;;;;;;;1.25;1.17;;;;;;;4.55;93.68;99678.84;5096661;28;20048;-64
2023/01/13 03:09:29;;;;;;;3.17;2.97;;;;;;;4.52;93.94;99681.28;5097321;28;20044;-63
2023/01/13 03:12:09;;;;;;;1.48;1.38;;;;;;;4.47;93.76;99675.28;5096673;28;20044;-63
2023/01/13 03:14:48;;;;;;;8.65;1.65;;;;;;;4.50;94.10;99675.34;5096619;28;20053;-63
2023/01/13 03:17:27;;;;;;;3.83;3.42;;;;;;;4.45;93.49;99672.72;5096450;28;20123;-63
2023/01/13 03:20:04;;;;;;;4.25;2.20;;;;;;;4.44;93.67;99676.06;5097245;28;20064;-63
2023/01/13 03:22:37;;;;;;;1.95;1.50;;;;;;;4.49;93.91;99678.69;5096759;28;20052;-63
2023/01/13 03:25:13;;;;;;;3.80;3.17;;;;;;;4.50;93.79;99672.81;5096813;28;20040;-64
2023/01/13 03:27:49;;;;;;;3.55;3.10;;;;;;;4.44;94.03;99680.28;5096293;28;20040;-64
2023/01/13 03:30:23;;;;;;;4.63;3.60;;;;;;;4.42;94.23;99671.78;5096644;28;20055;-64
2023/01/13 03:32:59;;;;;;;1.73;1.63;;;;;;;4.44;93.90;99670.16;5096431;28;20471;-63
2023/01/13 03:35:32;;;;;;;4.07;2.50;;;;;;;4.43;93.83;99676.03;5095996;28;20043;-64
2023/01/13 03:38:07;;;;;;;3.40;3.13;;;;;;;4.45;93.81;99681.97;5096140;28;20048;-64
2023/01/13 03:40:42;;;;;;;1.63;1.52;;;;;;;4.49;94.00;99686.25;5096455;28;20134;-64
2023/01/13 03:46:00;;;;;;;3.00;1.50;;;;;;;4.51;94.01;99682.13;5096663;28;20040;-63
2023/01/13 03:48:36;;;;;;;1.73;1.63;;;;;;;4.52;93.97;99682.16;5095949;28;20093;-64
2023/01/13 03:51:08;;;;;;;0.70;0.70;;;;;;;4.53;94.03;99675.44;5094780;28;20059;-63
2023/01/13 03:53:40;;;;;;;1.75;1.65;;;;;;;4.49;94.08;99669.44;5096051;28;20059;-64
2023/01/13 03:56:15;;;;;;;1.45;1.35;;;;;;;4.55;94.11;99683.91;5095980;28;20055;-64
2023/01/13 03:58:49;;;;;;;0.65;0.65;;;;;;;4.55;93.90;99688.94;5095719;28;20040;-64
2023/01/13 04:01:22;;;;;;;5.88;1.67;;;;;;;4.56;93.72;99690.63;5095735;28;20100;-64
2023/01/13 04:04:00;;;;;;;1.52;1.38;;;;;;;4.56;94.08;99686.44;5096083;28;20114;-64
2023/01/13 04:06:38;;;;;;;1.35;1.13;;;;;;;4.60;94.14;99687.38;5096007;28;20048;-64
2023/01/13 04:09:14;;;;;;;1.30;1.20;;;;;;;4.61;93.97;99684.03;5095818;28;20444;-64
2023/01/13 04:11:48;;;;;;;1.27;1.17;;;;;;;4.63;94.16;99687.47;5095545;28;20093;-64
2023/01/13 04:14:20;;;;;;;2.25;1.60;;;;;;;4.66;94.12;99690.03;5095520;28;20504;-64
2023/01/13 04:16:49;;;;;;;1.25;1.02;;;;;;;4.67;94.01;99690.09;5095640;28;20044;-64
2023/01/13 04:19:20;;;;;;;2.25;2.05;;;;;;;4.65;93.91;99696.75;5095290;28;20490;-64
2023/01/13 04:21:48;;;;;;;0.60;0.60;;;;;;;4.63;93.90;99690.00;5095624;28;20450;-64
2023/01/13 04:24:17;;;;;;;1.63;1.53;;;;;;;4.62;93.80;99691.66;5095521;28;20542;-64
2023/01/13 04:26:46;;;;;;;0.60;0.60;;;;;;;4.61;93.71;99692.47;5095290;28;20127;-63
2023/01/13 04:29:15;;;;;;;1.73;1.60;;;;;;;4.60;94.34;99697.50;5095913;28;20119;-64
2023/01/13 04:31:44;;;;;;;1.90;1.33;;;;;;;4.56;94.02;99696.56;5095368;28;20069;-64
2023/01/13 04:34:13;;;;;;;4.95;2.42;;;;;;;4.56;93.65;99700.75;5095340;28;20167;-64
2023/01/13 04:36:43;;;;;;;1.98;1.80;;;;;;;4.54;93.53;99687.22;5094932;28;20101;-64
2023/01/13 04:39:12;;;;;;;1.13;1.08;;;;;;;4.54;93.67;99693.16;5093707;28;20055;-64
2023/01/13 04:44:20;;;;;;;0.47;0.47;;;;;;;4.53;93.87;99701.56;5095235;28;20512;-64
2023/01/13 04:46:49;;;;;;;2.72;1.73;;;;;;;4.48;93.66;99694.69;5093978;28;20154;-64
2023/01/13 04:49:18;;;;;;;3.25;1.83;;;;;;;4.48;93.82;99697.22;5094983;28;20521;-64
2023/01/13 04:51:48;;;;;;;1.63;1.53;;;;;;;4.48;93.89;99693.03;5094598;28;20051;-64
2023/01/13 04:54:17;;;;;;;2.55;2.25;;;;;;;4.49;93.48;99693.84;5094714;28;20059;-64
2023/01/13 04:56:46;;;;;;;2.07;1.93;;;;;;;4.40;93.45;99686.06;5094330;28;20550;-64
2023/01/13 04:59:15;;;;;;;0.95;0.93;;;;;;;4.36;93.58;99694.38;5094666;28;20040;-64
2023/01/13 05:01:43;;;;;;;2.00;1.80;;;;;;;4.35;93.59;99692.66;5094783;28;20071;-64
2023/01/13 05:04:14;;;;;;;0.88;0.88;;;;;;;4.38;93.74;99696.13;5094467;28;20599;-64
2023/01/13 05:06:43;;;;;;;1.95;1.85;;;;;;;4.34;93.44;99685.94;5094449;28;20054;-64
2023/01/13 05:09:14;;;;;;;3.45;3.17;;;;;;;4.39;93.44;99694.47;5094380;28;20048;-64
2023/01/13 05:17:01;;;;;;;1.93;1.83;;;;;;;4.24;93.39;99694.09;5094228;28;20044;-64
2023/01/13 05:19:32;;;;;;;3.35;3.05;;;;;;;4.23;93.51;99695.75;5094217;28;20044;-64
2023/01/13 05:27:20;;;;;;;1.45;1.35;;;;;;;4.28;93.96;99698.38;5094369;28;20130;-63
2023/01/13 05:29:49;;;;;;;2.55;2.35;;;;;;;4.28;93.85;99688.28;5094118;28;20044;-64
2023/01/13 05:32:18;;;;;;;2.83;2.57;;;;;;;4.24;93.92;99699.16;5093930;28;20040;-63
2023/01/13 05:34:46;;;;;;;1.57;1.43;;;;;;;4.20;93.71;99694.84;5094043;28;20036;-64
2023/01/13 05:37:16;;;;;;;2.42;1.95;;;;;;;4.22;94.02;99703.31;5093865;28;20062;-64
2023/01/13 05:45:04;;;;;;;;;;;;;;;4.15;94.02;99706.50;5094255;28;20102;-64
2023/01/13 05:47:33;;;;;;;5.10;1.90;;;;;;;4.15;93.81;99709.03;5093774;28;19966;-64
2023/01/13 05:50:04;;;;;;;3.67;2.92;;;;;;;4.18;94.03;99709.06;5093684;28;20509;-63
2023/01/13 05:52:32;;;;;;;;;;;;;;;4.18;94.05;99709.06;5094061;28;20040;-63
2023/01/13 05:55:02;;;;;;;3.92;1.98;;;;;;;4.17;94.22;99703.19;5093695;28;20281;-64
2023/01/13 05:57:31;;;;;;;3.40;3.10;;;;;;;4.19;94.12;99708.28;5093122;28;20051;-64
2023/01/13 06:00:00;;;;;;;3.50;3.20;;;;;;;4.17;93.74;99700.69;5093680;28;20115;-64
2023/01/13 06:02:39;;;;;;;3.70;3.37;;;;;;;4.13;94.13;99692.97;5093726;28;20101;-64
2023/01/13 06:05:08;;;;;;;2.00;1.85;;;;;;;4.10;94.20;99692.91;5094185;28;20089;-64
2023/01/13 06:07:37;;;;;;;;;;;;;;;4.11;94.07;99697.13;5093886;28;20067;-64
2023/01/13 06:10:09;;;;;;;1.00;0.98;;;;;;;4.10;93.76;99693.75;5093563;28;20397;-63
2023/01/13 06:12:38;;;;;;;2.90;2.05;;;;;;;4.11;93.89;99694.59;5093436;28;20051;-64
2023/01/13 06:15:08;;;;;;;2.37;2.17;;;;;;;4.10;94.12;99686.19;5093464;28;20558;-63
2023/01/13 06:17:36;;;;;;;2.22;1.98;;;;;;;4.16;93.92;99682.94;5093705;28;20143;-63
2023/01/13 06:20:07;;;;;;;3.47;3.03;;;;;;;4.17;94.24;99689.72;5093660;28;20161;-64
2023/01/13 06:22:38;;;;;;;2.85;2.28;;;;;;;4.19;94.13;99688.06;5093476;28;20047;-64
2023/01/13 06:25:16;;;;;;;4.47;4.07;;;;;;;4.16;94.15;99688.00;5093360;28;20059;-64
2023/01/13 06:27:45;;;;;;;2.42;2.22;;;;;;;4.08;94.05;99691.19;5093680;28;20105;-63
2023/01/13 06:30:14;;;;;;;5.18;4.68;;;;;;;4.08;94.31;99693.69;5093578;28;20044;-63
2023/01/13 06:32:46;;;;;;;2.85;2.65;;;;;;;4.07;94.32;99698.72;5093244;28;20101;-63
2023/01/13 06:35:19;;;;;;;4.82;4.43;;;;;;;4.07;94.00;99683.56;5093561;28;20131;-63
2023/01/13 06:37:52;;;;;;;5.28;4.38;;;;;;;4.14;94.21;99687.09;5093210;28;20056;-63
2023/01/13 06:40:23;;;;;;;3.75;2.95;;;;;;;4.14;94.34;99684.56;5093240;28;20090;-64
2023/01/13 06:45:33;;;;;;;3.38;2.92;;;;;;;4.23;94.64;99694.91;5093162;28;20063;-64
2023/01/13 06:48:02;;;;;;;4.50;4.10;;;;;;;4.26;94.28;99685.75;5093450;28;20079;-64
2023/01/13 06:50:30;;;;;;;2.58;2.33;;;;;;;4.28;94.75;99698.38;5093151;28;20123;-64
2023/01/13 06:52:59;;;;;;;3.83;3.50;;;;;;;4.29;94.05;99705.16;5093487;28;20113;-64
2023/01/13 06:55:29;;;;;;;7.68;3.78;;;;;;;4.32;94.37;99710.31;5093553;28;20051;-64
2023/01/13 06:57:58;;;;;;;3.80;2.97;;;;;;;4.34;94.68;99709.53;5093528;28;20044;-64
2023/01/13 07:00:27;;;;;;;2.42;2.22;;;;;;;4.37;94.54;99713.75;5093051;28;20071;-64
2023/01/13 07:03:09;;;;;;;4.72;4.22;;;;;;;4.37;94.31;99702.00;5093253;28;20032;-64
2023/01/13 07:05:38;;;;;;;5.00;2.15;;;;;;;4.43;94.40;99703.81;5093421;28;20083;-64
2023/01/13 07:08:08;;;;;;;3.45;3.15;;;;;;;4.43;94.49;99704.69;5093199;28;20119;-64
2023/01/13 07:10:39;;;;;;;2.42;2.22;;;;;;;4.42;94.16;99702.09;5096880;28;20048;-64
2023/01/13 07:15:57;;;;;;;7.20;3.30;;;;;;;4.37;94.47;99704.53;5095451;28;20097;-64
2023/01/13 07:18:30;;;;;;;1.25;1.15;;;;;;;4.36;94.43;99691.88;5096793;28;20464;-64
2023/01/13 07:21:02;;;;;;;16.88;4.18;;;;;;;4.42;94.27;99709.69;5096423;28;20046;-64
2023/01/13 07:23:34;;;;;;;2.53;2.33;;;;;;;4.48;94.31;99702.25;5096475;28;20051;-64
2023/01/13 07:26:05;;;;;;;2.95;2.65;;;;;;;4.54;94.25;99708.31;5096319;28;20134;-64
2023/01/13 07:28:35;;;;;;;3.50;2.67;;;;;;;4.54;94.67;99692.28;5096334;28;20090;-64
2023/01/13 07:31:04;;;;;;;1.13;1.08;;;;;;;4.63;94.26;99703.47;5096245;28;20040;-64
2023/01/13 07:33:33;;;;;;;2.42;1.95;;;;;;;4.66;94.27;99705.19;5096472;28;20044;-64
2023/01/13 07:36:05;;;;;;;5.28;2.42;;;;;;;4.69;94.46;99692.66;5096197;28;20052;-64
2023/01/13 07:38:34;;;;;;;2.25;2.05;;;;;;;4.72;94.26;99692.72;5096059;28;20122;-64
2023/01/13 07:43:47;;;;;;;3.40;2.10;;;;;;;4.61;94.24;99694.13;5096374;28;20089;-63
2023/01/13 07:46:16;;;;;;;3.53;3.20;;;;;;;4.61;94.17;99692.47;5096041;28;20064;-64
2023/01/13 07:48:46;;;;;;;4.22;3.75;;;;;;;4.64;94.02;99699.25;5096100;28;20051;-64
2023/01/13 07:51:15;;;;;;;3.47;2.90;;;;;;;4.66;94.23;99705.19;5096178;28;20048;-64
2023/01/13 07:53:44;;;;;;;7.37;5.27;;;;;;;4.65;94.29;99701.00;5096144;28;20401;-64
2023/01/13 07:56:15;;;;;;;1.90;1.55;;;;;;;4.71;94.16;99711.22;5095551;28;20109;-64
2023/01/13 07:58:49;;;;;;;11.40;4.60;;;;;;;4.73;94.27;99709.56;5095959;28;20090;-64
2023/01/13 08:01:19;;;;;;;1.50;1.40;;;;;;;4.71;94.26;99711.22;5095779;28;20044;-64
2023/01/13 08:03:47;;;;;;;2.25;2.05;;;;;;;4.76;94.09;99714.72;5095651;28;20134;-64
2023/01/13 08:06:16;;;;;;;4.67;2.53;;;;;;;4.79;94.15;99709.72;5095848;28;20402;-64
2023/01/13 08:08:45;;;;;;;1.87;1.70;;;;;;;4.81;93.98;99718.19;5094573;28;20047;-65
2023/01/13 08:11:15;;;;;;;2.20;2.00;;;;;;;4.85;94.26;99717.44;5113963;28;20038;-63
2023/01/13 08:13:44;;;;;;;1.25;1.15;;;;;;;4.85;94.13;99714.91;5116127;28;20047;-64
2023/01/13 08:16:15;;;;;;;11.80;4.53;;;;;;;4.87;94.17;99707.38;5116047;28;20469;-63
2023/01/13 08:18:44;;;;;;;1.98;1.88;;;;;;;4.92;94.44;99716.75;5115607;27;20043;-63
2023/01/13 08:21:14;;;;;;;2.80;2.60;;;;;;;4.97;93.96;99714.31;5115488;28;20066;-64
2023/01/13 08:23:45;;;;;;;2.75;2.28;;;;;;;5.01;94.04;99718.66;5115960;28;20127;-63
2023/01/13 08:26:17;;;;;;;11.65;4.25;;;;;;;5.03;93.60;99725.44;5115802;28;20082;-64
2023/01/13 08:28:46;;;;;;;1.50;1.40;;;;;;;5.04;93.76;99717.03;5110251;28;20506;-64
2023/01/13 08:31:18;;;;;;;4.25;3.28;;;;;;;5.07;93.73;99716.22;5108806;28;20044;-64
2023/01/13 08:33:48;;;;;;;8.52;3.33;;;;;;;5.11;93.80;99713.81;5115580;28;20043;-63
2023/01/13 08:36:17;;;;;;;2.80;2.08;;;;;;;5.17;93.83;99719.00;5115305;28;20127;-63
2023/01/13 08:38:46;;;;;;;3.65;3.35;;;;;;;5.21;93.57;99720.78;5115164;28;20063;-64
2023/01/13 08:41:53;;;;;;;3.17;2.20;;;;;;;5.24;93.40;99718.31;5115327;28;20100;-63
2023/01/13 08:44:08;;;;;;;2.17;1.98;;;;;;;5.29;93.43;99714.22;5115183;28;20448;-64
2023/01/13 08:46:37;;;;;;;3.63;2.40;;;;;;;5.35;93.45;99724.44;5115500;28;20088;-64
2023/01/13 08:49:06;;;;;;;3.10;2.63;;;;;;;5.41;93.52;99719.50;5114261;28;20055;-64
2023/01/13 08:51:35;;;;;;;5.50;2.72;;;;;;;5.46;93.31;99728.88;5096911;28;20036;-64
2023/01/13 08:54:04;;;;;;;1.27;1.17;;;;;;;5.51;93.47;99729.81;5094652;28;20036;-63
2023/01/13 08:56:34;;;;;;;1.38;1.27;;;;;;;5.61;92.98;99716.53;5094405;28;20051;-64
2023/01/13 08:59:03;;;;;;;3.17;2.88;;;;;;;5.61;93.45;99732.56;5094470;28;20126;-63
2023/01/13 09:01:32;;;;;;;3.23;2.50;;;;;;;5.64;93.07;99732.63;5094436;28;20067;-63
2023/01/13 09:04:01;;;;;;;;;;;;;;;5.63;93.06;99730.06;5094588;28;20040;-64
2023/01/13 09:06:30;;;;;;;4.82;2.97;;;;;;;5.64;92.62;99731.78;5094615;28;20320;-63
2023/01/13 09:09:01;;;;;;;2.77;2.33;;;;;;;5.65;92.59;99733.47;5094459;28;20097;-63
2023/01/13 09:14:16;;;;;;;2.90;2.08;;;;;;;5.68;92.03;99731.00;5093908;28;20051;-63
2023/01/13 09:16:45;;;;;;;1.25;1.10;;;;;;;5.75;92.21;99725.25;5094496;28;20036;-63
2023/01/13 09:19:14;;;;;;;1.90;1.63;;;;;;;5.82;92.10;99727.06;5093986;28;20040;-63
2023/01/13 09:21:43;;;;;;;9.85;2.88;;;;;;;5.87;91.63;99730.56;5094023;28;20383;-63
2023/01/13 09:24:12;;;;;;;5.90;5.22;;;;;;;5.92;91.67;99724.78;5094375;28;20042;-63
2023/01/13 09:26:41;;;;;;;5.93;2.67;;;;;;;5.95;91.85;99729.03;5094044;28;20039;-63
2023/01/13 09:29:09;;;;;;;4.40;4.00;;;;;;;5.97;91.59;99729.91;5094237;28;20047;-63
2023/01/13 09:31:39;;;;;;;1.50;1.40;;;;;;;5.94;91.25;99724.78;5093401;28;20089;-63
2023/01/13 09:37:03;;;;;;;2.55;2.35;;;;;;;5.97;91.18;99709.66;5059931;28;20063;-64
2023/01/13 09:39:33;;;;;;;3.30;2.83;;;;;;;6.03;91.24;99712.28;5103049;28;20436;-64
2023/01/13 09:44:51;;;;;;;2.47;2.28;;;;;;;6.19;90.88;99693.97;5114534;28;20047;-63
2023/01/13 09:47:25;;;;;;;3.53;1.40;;;;;;;6.29;90.63;99693.31;5114164;28;20052;-63
2023/01/13 09:49:59;;;;;;;6.40;3.13;;;;;;;6.37;89.83;99683.28;5109226;28;20418;-63
2023/01/13 09:52:28;;;;;;;2.60;1.83;;;;;;;6.46;90.15;99689.38;5098594;28;20044;-63
2023/01/13 09:55:05;;;;;;;1.02;0.95;;;;;;;6.51;89.80;99686.91;5093665;28;20047;-63
2023/01/13 09:57:38;;;;;;;2.80;1.27;;;;;;;6.54;89.33;99682.75;5104155;28;20047;-63
2023/01/13 10:00:13;;;;;;;1.40;0.98;;;;;;;6.56;88.81;99676.00;5101807;28;20036;-63
2023/01/13 10:03:00;;;;;;;1.65;1.25;;;;;;;6.57;88.28;99672.66;5103015;28;20097;-63
2023/01/13 10:05:36;;;;;;;1.27;1.17;;;;;;;6.57;87.84;99677.72;5093626;28;20063;-63
2023/01/13 10:08:11;;;;;;;3.05;2.28;;;;;;;6.57;87.17;99667.59;5093850;28;20445;-63
2023/01/13 10:10:45;;;;;;;1.95;1.80;;;;;;;6.52;87.04;99666.66;5101165;28;20044;-63
2023/01/13 10:13:20;;;;;;;2.70;1.25;;;;;;;6.50;87.28;99659.84;5106944;28;20076;-64
2023/01/13 10:16:20;;;;;;;3.47;1.98;;;;;;;6.53;86.98;99658.19;5100923;28;20048;-63
2023/01/13 10:19:03;;;;;;;1.95;1.85;;;;;;;6.54;86.96;99665.00;5103444;28;20036;-63
2023/01/13 10:22:04;;;;;;;2.08;1.88;;;;;;;6.56;85.96;99655.72;5104428;28;20401;-63
2023/01/13 10:25:05;;;;;;;2.47;2.20;;;;;;;6.60;86.33;99654.94;5091779;28;20044;-63
2023/01/13 10:27:36;;;;;;;3.17;1.92;;;;;;;6.64;86.17;99668.50;5087413;28;20047;-63
2023/01/13 10:30:19;;;;;;;2.95;1.33;;;;;;;6.65;85.74;99663.47;5093354;28;20044;-64
2023/01/13 10:32:54;;;;;;;1.60;1.50;;;;;;;6.65;86.18;99660.91;5093612;28;20151;-63
2023/01/13 10:35:44;;;;;;;2.00;1.83;;;;;;;6.68;85.64;99676.19;5093065;28;20052;-64
2023/01/13 10:38:19;;;;;;;2.13;2.00;;;;;;;6.67;86.21;99664.31;5107590;28;20056;-63
2023/01/13 10:40:49;;;;;;;1.50;1.40;;;;;;;6.71;85.51;99671.16;5113649;28;20040;-63
2023/01/13 10:43:18;;;;;;;5.38;3.70;;;;;;;6.75;85.96;99652.63;5106614;28;20043;-63
2023/01/13 10:46:00;;;;;;;1.00;0.85;;;;;;;6.74;85.56;99645.81;5097158;28;20048;-63
2023/01/13 10:48:38;;;;;;;1.60;1.45;;;;;;;6.70;85.75;99646.63;5097540;28;20395;-63
2023/01/13 10:51:18;;;;;;;2.10;1.88;;;;;;;6.71;85.36;99645.81;5097400;28;20087;-63
2023/01/13 10:53:52;;;;;;;3.00;1.65;;;;;;;6.74;84.74;99643.28;5097303;28;20097;-63
2023/01/13 10:56:23;;;;;;;0.90;0.90;;;;;;;6.74;85.11;99640.75;5110152;28;20055;-63
2023/01/13 10:58:52;;;;;;;2.33;2.13;;;;;;;6.73;84.94;99644.13;5099549;28;20051;-63
2023/01/13 11:01:29;;;;;;;1.27;1.17;;;;;;;6.77;84.61;99649.25;5095520;28;20498;-63
2023/01/13 11:03:58;;;;;;;0.60;0.60;;;;;;;6.79;85.26;99640.00;5097167;28;20505;-63
2023/01/13 11:06:29;;;;;;;2.95;2.72;;;;;;;6.81;84.82;99638.31;5095578;28;20059;-63
2023/01/13 11:09:01;;;;;;;2.72;2.15;;;;;;;6.78;85.50;99640.81;5097014;28;20043;-63
2023/01/13 11:11:43;;;;;;;0.98;0.95;;;;;;;6.74;85.08;99640.75;5079135;28;20501;-63
2023/01/13 11:17:04;;;;;;;0.95;0.90;;;;;;;6.72;85.56;99628.88;5096961;28;20554;-63
2023/01/13 11:19:34;;;;;;;1.65;1.40;;;;;;;6.75;85.12;99637.41;5096430;28;20051;-63
2023/01/13 11:22:12;;;;;;;1.48;1.35;;;;;;;6.83;85.29;99634.97;5104270;28;20040;-63
2023/01/13 11:24:46;;;;;;;2.58;1.45;;;;;;;6.85;84.99;99632.44;5096311;28;20047;-63
2023/01/13 11:27:24;;;;;;;1.70;1.60;;;;;;;6.90;85.07;99634.22;5101436;28;20048;-63
2023/01/13 11:30:01;;;;;;;12.95;2.55;;;;;;;6.91;84.25;99630.81;5101157;27;20094;-63
2023/01/13 11:32:35;;;;;;;1.63;1.52;;;;;;;6.93;83.80;99630.88;5096347;28;20046;-63
2023/01/13 11:35:14;;;;;;;1.38;1.27;;;;;;;6.94;84.04;99623.28;5096518;28;20069;-63
2023/01/13 11:37:49;;;;;;;0.82;0.82;;;;;;;6.97;83.89;99613.16;5104123;28;20093;-63
2023/01/13 11:40:36;;;;;;;0.90;0.90;;;;;;;7.04;83.88;99611.53;5116454;28;20123;-63
2023/01/13 11:43:18;;;;;;;2.08;1.60;;;;;;;7.09;83.98;99620.06;5106801;28;20044;-63
2023/01/13 11:45:52;;;;;;;5.07;1.83;;;;;;;7.16;84.47;99632.00;5106403;28;20044;-63
2023/01/13 11:48:25;;;;;;;4.07;2.45;;;;;;;7.14;84.12;99631.13;5096058;28;20040;-63
2023/01/13 11:51:02;;;;;;;0.65;0.65;;;;;;;7.08;83.97;99620.91;5095871;28;20052;-63
2023/01/13 11:53:51;;;;;;;1.42;0.98;;;;;;;7.08;83.74;99620.91;5094382;28;20052;-63
2023/01/13 11:56:36;;;;;;;1.33;1.23;;;;;;;7.01;83.77;99616.56;5101926;28;20058;-64
2023/01/13 11:59:32;;;;;;;1.10;1.05;;;;;;;6.92;83.96;99612.25;5095767;28;20093;-63
2023/01/13 12:02:13;;;;;;;2.00;1.85;;;;;;;6.87;84.01;99590.19;5086727;28;20055;-64
2023/01/13 12:04:53;;;;;;;1.15;0.70;;;;;;;6.82;83.42;99585.06;5095712;28;20036;-64
2023/01/13 12:07:36;;;;;;;0.80;0.80;;;;;;;6.80;83.43;99596.03;5101511;28;20051;-64
2023/01/13 12:10:12;;;;;;;1.90;1.73;;;;;;;6.78;83.85;99590.94;5113202;28;20482;-65
2023/01/13 12:12:51;;;;;;;1.17;1.08;;;;;;;6.78;83.56;99585.00;5095447;28;20044;-64
2023/01/13 12:15:44;;;;;;;1.47;1.37;;;;;;;6.70;83.91;99580.69;5099025;28;20046;-64
2023/01/13 12:18:32;;;;;;;1.20;0.98;;;;;;;6.67;84.10;99583.19;5095729;28;20079;-65
2023/01/13 12:21:19;;;;;;;1.17;1.08;;;;;;;6.67;84.10;99567.97;5095258;28;20052;-64
2023/01/13 12:24:09;;;;;;;1.33;1.23;;;;;;;6.68;84.37;99569.69;5095305;28;20048;-65
2023/01/13 12:26:42;;;;;;;0.60;0.60;;;;;;;6.69;85.16;99543.47;5095214;28;20051;-65
2023/01/13 12:29:17;;;;;;;1.10;1.05;;;;;;;6.74;84.98;99531.69;5094372;28;20048;-64
2023/01/13 12:31:49;;;;;;;1.83;1.70;;;;;;;6.75;84.60;99535.97;5095244;28;20051;-64
2023/01/13 12:34:33;;;;;;;0.88;0.82;;;;;;;6.79;84.83;99526.69;5100343;28;20044;-64
2023/01/13 12:37:14;;;;;;;0.60;0.60;;;;;;;6.81;84.49;99544.47;5097758;28;20075;-64
2023/01/13 12:39:52;;;;;;;0.68;0.68;;;;;;;6.82;84.95;99544.47;5103878;28;20050;-64
2023/01/13 12:45:25;;;;;;;0.32;0.32;;;;;;;6.90;84.44;99531.91;5094869;28;20063;-64
2023/01/13 12:47:55;;;;;;;1.92;1.52;;;;;;;7.00;85.15;99531.16;5094854;28;20052;-64
2023/01/13 12:50:45;;;;;;;3.22;2.55;;;;;;;7.25;84.97;99522.97;5094708;28;20070;-64
2023/01/13 12:53:30;;;;;;;1.00;1.00;;;;;;;7.54;84.81;99521.53;5094700;28;20047;-64
2023/01/13 12:56:18;;;;;;;0.50;0.50;;;;;;;7.79;85.52;99528.53;5102725;28;20071;-64
2023/01/13 12:58:47;;;;;;;4.05;1.63;;;;;;;7.78;84.46;99528.50;5115296;28;20035;-64
2023/01/13 13:01:18;;;;;;;0.50;0.50;;;;;;;7.67;83.92;99538.59;5114775;28;20047;-64
2023/01/13 13:04:09;;;;;;;0.75;0.75;;;;;;;7.60;83.64;99541.94;5115181;28;20044;-64
2023/01/13 13:06:42;;;;;;;1.35;1.25;;;;;;;7.40;83.41;99531.59;5114167;28;20066;-64